sensor_id;sensor_type;location;lat;lon;timestamp;P1;durP1;ratioP1;P2;durP2;ratioP2
22070;SDS011;11200;51.488;6.668;2024-01-11T00:00:34;31.05;;;17.80;;
22070;SDS011;11200;51.488;6.668;2024-01-11T00:03:00;27.90;;;17.40;;
22070;SDS011;11200;51.488;6.668;2024-01-11T00:05:26;33.13;;;19.27;;
22070;SDS011;11200;51.488;6.668;2024-01-11T00:07:52;31.55;;;18.83;;
22070;SDS011;11200;51.488;6.668;2024-01-11T00:10:18;29.42;;;17.45;;
22070;SDS011;11200;51.488;6.668;2024-01-11T00:12:45;28.80;;;17.42;;
22070;SDS011;11200;51.488;6.668;2024-01-11T00:15:11;29.05;;;17.30;;
22070;SDS011;11200;51.488;6.668;2024-01-11T00:17:36;31.42;;;18.48;;
22070;SDS011;11200;51.488;6.668;2024-01-11T00:20:03;28.13;;;16.60;;
22070;SDS011;11200;51.488;6.668;2024-01-11T00:22:29;30.65;;;18.50;;
22070;SDS011;11200;51.488;6.668;2024-01-11T00:24:55;30.70;;;17.50;;
22070;SDS011;11200;51.488;6.668;2024-01-11T00:27:20;30.60;;;18.13;;
22070;SDS011;11200;51.488;6.668;2024-01-11T00:29:46;30.20;;;17.33;;
22070;SDS011;11200;51.488;6.668;2024-01-11T00:32:12;31.20;;;18.15;;
22070;SDS011;11200;51.488;6.668;2024-01-11T00:34:38;30.02;;;18.48;;
22070;SDS011;11200;51.488;6.668;2024-01-11T00:37:04;30.48;;;17.63;;
22070;SDS011;11200;51.488;6.668;2024-01-11T00:39:30;30.73;;;17.73;;
22070;SDS011;11200;51.488;6.668;2024-01-11T00:41:56;29.77;;;17.77;;
22070;SDS011;11200;51.488;6.668;2024-01-11T00:44:22;29.80;;;18.20;;
22070;SDS011;11200;51.488;6.668;2024-01-11T00:46:48;33.03;;;18.63;;
22070;SDS011;11200;51.488;6.668;2024-01-11T00:49:14;30.85;;;18.38;;
22070;SDS011;11200;51.488;6.668;2024-01-11T00:51:40;30.35;;;17.73;;
22070;SDS011;11200;51.488;6.668;2024-01-11T00:54:06;29.38;;;17.88;;
22070;SDS011;11200;51.488;6.668;2024-01-11T00:56:32;28.27;;;17.23;;
22070;SDS011;11200;51.488;6.668;2024-01-11T00:58:58;30.00;;;18.52;;
22070;SDS011;11200;51.488;6.668;2024-01-11T01:01:24;32.00;;;18.35;;
22070;SDS011;11200;51.488;6.668;2024-01-11T01:03:50;32.47;;;18.17;;
22070;SDS011;11200;51.488;6.668;2024-01-11T01:06:16;31.00;;;17.77;;
22070;SDS011;11200;51.488;6.668;2024-01-11T01:08:42;31.10;;;18.27;;
22070;SDS011;11200;51.488;6.668;2024-01-11T01:11:08;30.42;;;18.50;;
22070;SDS011;11200;51.488;6.668;2024-01-11T01:13:34;34.63;;;18.83;;
22070;SDS011;11200;51.488;6.668;2024-01-11T01:16:00;32.20;;;18.63;;
22070;SDS011;11200;51.488;6.668;2024-01-11T01:18:26;31.25;;;18.20;;
22070;SDS011;11200;51.488;6.668;2024-01-11T01:20:52;30.45;;;18.20;;
22070;SDS011;11200;51.488;6.668;2024-01-11T01:23:18;35.88;;;20.00;;
22070;SDS011;11200;51.488;6.668;2024-01-11T01:25:44;31.27;;;18.95;;
22070;SDS011;11200;51.488;6.668;2024-01-11T01:28:10;32.95;;;18.40;;
22070;SDS011;11200;51.488;6.668;2024-01-11T01:30:36;32.13;;;19.10;;
22070;SDS011;11200;51.488;6.668;2024-01-11T01:33:02;33.28;;;19.10;;
22070;SDS011;11200;51.488;6.668;2024-01-11T01:35:28;30.10;;;18.33;;
22070;SDS011;11200;51.488;6.668;2024-01-11T01:37:54;32.53;;;18.38;;
22070;SDS011;11200;51.488;6.668;2024-01-11T01:40:20;31.95;;;19.35;;
22070;SDS011;11200;51.488;6.668;2024-01-11T01:42:47;34.28;;;18.98;;
22070;SDS011;11200;51.488;6.668;2024-01-11T01:45:14;32.50;;;18.60;;
22070;SDS011;11200;51.488;6.668;2024-01-11T01:47:41;35.75;;;20.13;;
22070;SDS011;11200;51.488;6.668;2024-01-11T01:50:07;31.67;;;17.88;;
22070;SDS011;11200;51.488;6.668;2024-01-11T01:52:33;33.40;;;19.40;;
22070;SDS011;11200;51.488;6.668;2024-01-11T01:55:01;29.55;;;18.38;;
22070;SDS011;11200;51.488;6.668;2024-01-11T01:57:28;32.75;;;18.73;;
22070;SDS011;11200;51.488;6.668;2024-01-11T01:59:54;34.17;;;18.70;;
22070;SDS011;11200;51.488;6.668;2024-01-11T02:02:20;31.25;;;18.85;;
22070;SDS011;11200;51.488;6.668;2024-01-11T02:04:47;31.23;;;19.20;;
22070;SDS011;11200;51.488;6.668;2024-01-11T02:07:13;34.15;;;18.85;;
22070;SDS011;11200;51.488;6.668;2024-01-11T02:09:39;30.98;;;19.02;;
22070;SDS011;11200;51.488;6.668;2024-01-11T02:12:05;31.92;;;18.45;;
22070;SDS011;11200;51.488;6.668;2024-01-11T02:14:36;32.92;;;19.50;;
22070;SDS011;11200;51.488;6.668;2024-01-11T02:17:03;33.38;;;19.45;;
22070;SDS011;11200;51.488;6.668;2024-01-11T02:19:29;33.00;;;19.85;;
22070;SDS011;11200;51.488;6.668;2024-01-11T02:21:55;32.63;;;18.90;;
22070;SDS011;11200;51.488;6.668;2024-01-11T02:24:22;32.28;;;19.60;;
22070;SDS011;11200;51.488;6.668;2024-01-11T02:26:58;37.03;;;19.92;;
22070;SDS011;11200;51.488;6.668;2024-01-11T02:29:28;32.38;;;19.27;;
22070;SDS011;11200;51.488;6.668;2024-01-11T02:31:54;34.30;;;19.90;;
22070;SDS011;11200;51.488;6.668;2024-01-11T02:34:20;35.22;;;20.20;;
22070;SDS011;11200;51.488;6.668;2024-01-11T02:36:46;34.83;;;20.33;;
22070;SDS011;11200;51.488;6.668;2024-01-11T02:39:13;37.13;;;20.98;;
22070;SDS011;11200;51.488;6.668;2024-01-11T02:41:39;34.75;;;19.45;;
22070;SDS011;11200;51.488;6.668;2024-01-11T02:44:05;33.35;;;19.73;;
22070;SDS011;11200;51.488;6.668;2024-01-11T02:46:32;37.05;;;20.67;;
22070;SDS011;11200;51.488;6.668;2024-01-11T02:48:58;34.78;;;21.20;;
22070;SDS011;11200;51.488;6.668;2024-01-11T02:51:24;38.20;;;21.00;;
22070;SDS011;11200;51.488;6.668;2024-01-11T02:53:50;38.42;;;20.60;;
22070;SDS011;11200;51.488;6.668;2024-01-11T02:56:16;36.63;;;19.88;;
22070;SDS011;11200;51.488;6.668;2024-01-11T02:58:42;35.97;;;19.60;;
22070;SDS011;11200;51.488;6.668;2024-01-11T03:01:08;35.90;;;19.85;;
22070;SDS011;11200;51.488;6.668;2024-01-11T03:03:34;38.15;;;21.08;;
22070;SDS011;11200;51.488;6.668;2024-01-11T03:06:00;37.30;;;20.20;;
22070;SDS011;11200;51.488;6.668;2024-01-11T03:08:26;35.72;;;19.90;;
22070;SDS011;11200;51.488;6.668;2024-01-11T03:10:52;35.85;;;21.13;;
22070;SDS011;11200;51.488;6.668;2024-01-11T03:13:18;34.13;;;20.15;;
22070;SDS011;11200;51.488;6.668;2024-01-11T03:15:44;38.22;;;21.02;;
22070;SDS011;11200;51.488;6.668;2024-01-11T03:18:10;37.60;;;20.63;;
22070;SDS011;11200;51.488;6.668;2024-01-11T03:20:36;34.80;;;20.33;;
22070;SDS011;11200;51.488;6.668;2024-01-11T03:23:02;34.63;;;19.70;;
22070;SDS011;11200;51.488;6.668;2024-01-11T03:25:31;35.72;;;20.40;;
22070;SDS011;11200;51.488;6.668;2024-01-11T03:27:57;34.65;;;19.80;;
22070;SDS011;11200;51.488;6.668;2024-01-11T03:30:24;35.88;;;20.30;;
22070;SDS011;11200;51.488;6.668;2024-01-11T03:32:50;35.38;;;19.88;;
22070;SDS011;11200;51.488;6.668;2024-01-11T03:35:17;34.88;;;20.02;;
22070;SDS011;11200;51.488;6.668;2024-01-11T03:37:44;36.45;;;20.90;;
22070;SDS011;11200;51.488;6.668;2024-01-11T03:40:10;35.55;;;20.42;;
22070;SDS011;11200;51.488;6.668;2024-01-11T03:42:36;35.75;;;20.60;;
22070;SDS011;11200;51.488;6.668;2024-01-11T03:45:02;34.88;;;20.45;;
22070;SDS011;11200;51.488;6.668;2024-01-11T03:47:28;35.13;;;19.50;;
22070;SDS011;11200;51.488;6.668;2024-01-11T03:49:54;38.42;;;21.58;;
22070;SDS011;11200;51.488;6.668;2024-01-11T03:52:20;33.67;;;19.02;;
22070;SDS011;11200;51.488;6.668;2024-01-11T03:54:46;35.75;;;20.25;;
22070;SDS011;11200;51.488;6.668;2024-01-11T03:57:13;31.85;;;19.17;;
22070;SDS011;11200;51.488;6.668;2024-01-11T03:59:39;35.22;;;20.05;;
22070;SDS011;11200;51.488;6.668;2024-01-11T04:02:05;38.53;;;21.25;;
22070;SDS011;11200;51.488;6.668;2024-01-11T04:04:32;39.28;;;21.27;;
22070;SDS011;11200;51.488;6.668;2024-01-11T04:06:58;34.05;;;20.58;;
22070;SDS011;11200;51.488;6.668;2024-01-11T04:09:24;34.10;;;19.67;;
22070;SDS011;11200;51.488;6.668;2024-01-11T04:11:50;36.03;;;20.58;;
22070;SDS011;11200;51.488;6.668;2024-01-11T04:14:16;33.50;;;20.23;;
22070;SDS011;11200;51.488;6.668;2024-01-11T04:16:42;35.97;;;20.45;;
22070;SDS011;11200;51.488;6.668;2024-01-11T04:19:08;36.72;;;21.00;;
22070;SDS011;11200;51.488;6.668;2024-01-11T04:21:34;35.95;;;20.13;;
22070;SDS011;11200;51.488;6.668;2024-01-11T04:24:02;37.17;;;20.40;;
22070;SDS011;11200;51.488;6.668;2024-01-11T04:26:28;37.60;;;20.63;;
22070;SDS011;11200;51.488;6.668;2024-01-11T04:28:54;34.67;;;20.55;;
22070;SDS011;11200;51.488;6.668;2024-01-11T04:31:22;37.70;;;19.67;;
22070;SDS011;11200;51.488;6.668;2024-01-11T04:33:48;36.38;;;21.42;;
22070;SDS011;11200;51.488;6.668;2024-01-11T04:36:14;35.85;;;20.92;;
22070;SDS011;11200;51.488;6.668;2024-01-11T04:38:40;36.22;;;19.95;;
22070;SDS011;11200;51.488;6.668;2024-01-11T04:41:13;36.72;;;20.40;;
22070;SDS011;11200;51.488;6.668;2024-01-11T04:43:43;34.22;;;19.95;;
22070;SDS011;11200;51.488;6.668;2024-01-11T04:46:18;31.98;;;19.50;;
22070;SDS011;11200;51.488;6.668;2024-01-11T04:48:45;33.80;;;19.88;;
22070;SDS011;11200;51.488;6.668;2024-01-11T04:51:12;37.28;;;20.40;;
22070;SDS011;11200;51.488;6.668;2024-01-11T04:53:41;37.53;;;20.58;;
22070;SDS011;11200;51.488;6.668;2024-01-11T04:56:08;37.15;;;20.83;;
22070;SDS011;11200;51.488;6.668;2024-01-11T04:58:34;36.00;;;21.02;;
22070;SDS011;11200;51.488;6.668;2024-01-11T05:01:00;37.50;;;19.50;;
22070;SDS011;11200;51.488;6.668;2024-01-11T05:03:27;34.53;;;20.60;;
22070;SDS011;11200;51.488;6.668;2024-01-11T05:05:54;34.80;;;20.05;;
22070;SDS011;11200;51.488;6.668;2024-01-11T05:08:21;37.28;;;21.45;;
22070;SDS011;11200;51.488;6.668;2024-01-11T05:10:49;39.20;;;20.95;;
22070;SDS011;11200;51.488;6.668;2024-01-11T05:13:17;37.65;;;20.80;;
22070;SDS011;11200;51.488;6.668;2024-01-11T05:15:45;35.13;;;19.83;;
22070;SDS011;11200;51.488;6.668;2024-01-11T05:18:13;36.15;;;20.05;;
22070;SDS011;11200;51.488;6.668;2024-01-11T05:20:39;36.10;;;20.17;;
22070;SDS011;11200;51.488;6.668;2024-01-11T05:23:06;37.55;;;20.38;;
22070;SDS011;11200;51.488;6.668;2024-01-11T05:25:32;36.72;;;20.77;;
22070;SDS011;11200;51.488;6.668;2024-01-11T05:28:00;34.88;;;19.80;;
22070;SDS011;11200;51.488;6.668;2024-01-11T05:30:27;34.90;;;19.85;;
22070;SDS011;11200;51.488;6.668;2024-01-11T05:32:53;34.13;;;19.73;;
22070;SDS011;11200;51.488;6.668;2024-01-11T05:35:19;35.78;;;20.10;;
22070;SDS011;11200;51.488;6.668;2024-01-11T05:37:45;36.30;;;20.13;;
22070;SDS011;11200;51.488;6.668;2024-01-11T05:40:11;34.50;;;20.10;;
22070;SDS011;11200;51.488;6.668;2024-01-11T05:42:38;37.60;;;20.70;;
22070;SDS011;11200;51.488;6.668;2024-01-11T05:45:05;35.95;;;19.70;;
22070;SDS011;11200;51.488;6.668;2024-01-11T05:47:31;35.85;;;20.73;;
22070;SDS011;11200;51.488;6.668;2024-01-11T05:49:57;34.40;;;19.80;;
22070;SDS011;11200;51.488;6.668;2024-01-11T05:52:23;34.22;;;19.70;;
22070;SDS011;11200;51.488;6.668;2024-01-11T05:54:49;37.72;;;20.45;;
22070;SDS011;11200;51.488;6.668;2024-01-11T05:57:15;37.10;;;19.35;;
22070;SDS011;11200;51.488;6.668;2024-01-11T05:59:45;33.80;;;19.40;;
22070;SDS011;11200;51.488;6.668;2024-01-11T06:02:11;36.45;;;19.25;;
22070;SDS011;11200;51.488;6.668;2024-01-11T06:04:38;35.85;;;20.08;;
22070;SDS011;11200;51.488;6.668;2024-01-11T06:07:04;34.10;;;19.95;;
22070;SDS011;11200;51.488;6.668;2024-01-11T06:09:30;33.88;;;19.25;;
22070;SDS011;11200;51.488;6.668;2024-01-11T06:11:56;33.78;;;19.23;;
22070;SDS011;11200;51.488;6.668;2024-01-11T06:14:22;32.95;;;18.30;;
22070;SDS011;11200;51.488;6.668;2024-01-11T06:16:48;34.13;;;19.25;;
22070;SDS011;11200;51.488;6.668;2024-01-11T06:19:14;32.17;;;19.10;;
22070;SDS011;11200;51.488;6.668;2024-01-11T06:21:40;37.50;;;20.98;;
22070;SDS011;11200;51.488;6.668;2024-01-11T06:24:06;33.90;;;18.55;;
22070;SDS011;11200;51.488;6.668;2024-01-11T06:26:32;35.05;;;20.02;;
22070;SDS011;11200;51.488;6.668;2024-01-11T06:28:58;31.30;;;19.20;;
22070;SDS011;11200;51.488;6.668;2024-01-11T06:31:24;34.45;;;19.75;;
22070;SDS011;11200;51.488;6.668;2024-01-11T06:33:51;31.70;;;19.42;;
22070;SDS011;11200;51.488;6.668;2024-01-11T06:36:17;35.63;;;18.83;;
22070;SDS011;11200;51.488;6.668;2024-01-11T06:38:43;32.90;;;19.85;;
22070;SDS011;11200;51.488;6.668;2024-01-11T06:41:09;31.60;;;18.85;;
22070;SDS011;11200;51.488;6.668;2024-01-11T06:43:35;34.08;;;19.13;;
22070;SDS011;11200;51.488;6.668;2024-01-11T06:46:03;35.72;;;19.63;;
22070;SDS011;11200;51.488;6.668;2024-01-11T06:48:29;33.03;;;18.58;;
22070;SDS011;11200;51.488;6.668;2024-01-11T06:50:55;38.25;;;20.25;;
22070;SDS011;11200;51.488;6.668;2024-01-11T06:53:21;32.25;;;19.02;;
22070;SDS011;11200;51.488;6.668;2024-01-11T06:55:47;34.25;;;18.67;;
22070;SDS011;11200;51.488;6.668;2024-01-11T06:58:13;34.42;;;18.98;;
22070;SDS011;11200;51.488;6.668;2024-01-11T07:00:39;35.80;;;19.00;;
22070;SDS011;11200;51.488;6.668;2024-01-11T07:03:08;32.63;;;19.10;;
22070;SDS011;11200;51.488;6.668;2024-01-11T07:05:35;34.97;;;19.27;;
22070;SDS011;11200;51.488;6.668;2024-01-11T07:08:06;36.97;;;19.05;;
22070;SDS011;11200;51.488;6.668;2024-01-11T07:10:32;33.65;;;19.05;;
22070;SDS011;11200;51.488;6.668;2024-01-11T07:12:58;33.25;;;18.90;;
22070;SDS011;11200;51.488;6.668;2024-01-11T07:15:24;31.55;;;19.10;;
22070;SDS011;11200;51.488;6.668;2024-01-11T07:17:50;33.38;;;18.52;;
22070;SDS011;11200;51.488;6.668;2024-01-11T07:20:16;35.88;;;19.65;;
22070;SDS011;11200;51.488;6.668;2024-01-11T07:22:44;38.38;;;20.27;;
22070;SDS011;11200;51.488;6.668;2024-01-11T07:25:10;33.33;;;19.20;;
22070;SDS011;11200;51.488;6.668;2024-01-11T07:27:36;36.78;;;20.02;;
22070;SDS011;11200;51.488;6.668;2024-01-11T07:30:02;36.97;;;19.60;;
22070;SDS011;11200;51.488;6.668;2024-01-11T07:32:31;37.30;;;20.38;;
22070;SDS011;11200;51.488;6.668;2024-01-11T07:34:57;33.33;;;19.13;;
22070;SDS011;11200;51.488;6.668;2024-01-11T07:37:23;34.72;;;19.35;;
22070;SDS011;11200;51.488;6.668;2024-01-11T07:39:53;34.15;;;19.42;;
22070;SDS011;11200;51.488;6.668;2024-01-11T07:42:28;33.80;;;19.23;;
22070;SDS011;11200;51.488;6.668;2024-01-11T07:44:54;36.45;;;19.77;;
22070;SDS011;11200;51.488;6.668;2024-01-11T07:47:21;30.50;;;17.92;;
22070;SDS011;11200;51.488;6.668;2024-01-11T07:49:49;34.58;;;19.15;;
22070;SDS011;11200;51.488;6.668;2024-01-11T07:52:15;32.53;;;18.77;;
22070;SDS011;11200;51.488;6.668;2024-01-11T07:54:41;30.15;;;18.13;;
22070;SDS011;11200;51.488;6.668;2024-01-11T07:57:07;34.67;;;18.95;;
22070;SDS011;11200;51.488;6.668;2024-01-11T07:59:34;28.90;;;17.73;;
22070;SDS011;11200;51.488;6.668;2024-01-11T08:02:01;33.17;;;18.38;;
22070;SDS011;11200;51.488;6.668;2024-01-11T08:04:27;31.38;;;17.98;;
22070;SDS011;11200;51.488;6.668;2024-01-11T08:06:53;33.75;;;18.60;;
22070;SDS011;11200;51.488;6.668;2024-01-11T08:09:19;31.58;;;18.83;;
22070;SDS011;11200;51.488;6.668;2024-01-11T08:11:45;34.45;;;18.98;;
22070;SDS011;11200;51.488;6.668;2024-01-11T08:14:11;33.22;;;17.88;;
22070;SDS011;11200;51.488;6.668;2024-01-11T08:16:38;32.08;;;18.52;;
22070;SDS011;11200;51.488;6.668;2024-01-11T08:19:04;30.70;;;18.33;;
22070;SDS011;11200;51.488;6.668;2024-01-11T08:21:30;34.15;;;19.48;;
22070;SDS011;11200;51.488;6.668;2024-01-11T08:23:56;36.28;;;18.95;;
22070;SDS011;11200;51.488;6.668;2024-01-11T08:26:22;34.13;;;19.52;;
22070;SDS011;11200;51.488;6.668;2024-01-11T08:28:48;33.03;;;18.05;;
22070;SDS011;11200;51.488;6.668;2024-01-11T08:31:14;31.98;;;17.52;;
22070;SDS011;11200;51.488;6.668;2024-01-11T08:33:40;33.08;;;18.98;;
22070;SDS011;11200;51.488;6.668;2024-01-11T08:36:06;35.92;;;20.00;;
22070;SDS011;11200;51.488;6.668;2024-01-11T08:38:32;33.33;;;18.85;;
22070;SDS011;11200;51.488;6.668;2024-01-11T08:40:58;33.95;;;19.33;;
22070;SDS011;11200;51.488;6.668;2024-01-11T08:43:25;31.80;;;19.13;;
22070;SDS011;11200;51.488;6.668;2024-01-11T08:45:51;36.33;;;19.40;;
22070;SDS011;11200;51.488;6.668;2024-01-11T08:48:18;34.47;;;18.42;;
22070;SDS011;11200;51.488;6.668;2024-01-11T08:50:44;33.60;;;19.08;;
22070;SDS011;11200;51.488;6.668;2024-01-11T08:53:10;34.15;;;19.02;;
22070;SDS011;11200;51.488;6.668;2024-01-11T08:55:36;32.42;;;18.70;;
22070;SDS011;11200;51.488;6.668;2024-01-11T08:58:02;36.42;;;19.65;;
22070;SDS011;11200;51.488;6.668;2024-01-11T09:00:28;32.40;;;19.02;;
22070;SDS011;11200;51.488;6.668;2024-01-11T09:02:55;36.67;;;20.13;;
22070;SDS011;11200;51.488;6.668;2024-01-11T09:05:21;31.15;;;18.25;;
22070;SDS011;11200;51.488;6.668;2024-01-11T09:07:47;34.08;;;19.98;;
22070;SDS011;11200;51.488;6.668;2024-01-11T09:10:13;34.33;;;19.52;;
22070;SDS011;11200;51.488;6.668;2024-01-11T09:12:39;38.33;;;20.38;;
22070;SDS011;11200;51.488;6.668;2024-01-11T09:15:05;34.05;;;19.10;;
22070;SDS011;11200;51.488;6.668;2024-01-11T09:17:31;32.65;;;19.48;;
22070;SDS011;11200;51.488;6.668;2024-01-11T09:19:57;32.78;;;18.90;;
22070;SDS011;11200;51.488;6.668;2024-01-11T09:22:23;33.35;;;18.85;;
22070;SDS011;11200;51.488;6.668;2024-01-11T09:24:49;35.20;;;19.42;;
22070;SDS011;11200;51.488;6.668;2024-01-11T09:27:15;34.15;;;18.75;;
22070;SDS011;11200;51.488;6.668;2024-01-11T09:29:45;33.30;;;19.38;;
22070;SDS011;11200;51.488;6.668;2024-01-11T09:32:11;32.83;;;19.70;;
22070;SDS011;11200;51.488;6.668;2024-01-11T09:34:37;34.60;;;20.00;;
22070;SDS011;11200;51.488;6.668;2024-01-11T09:37:04;35.72;;;20.42;;
22070;SDS011;11200;51.488;6.668;2024-01-11T09:39:30;34.85;;;19.98;;
22070;SDS011;11200;51.488;6.668;2024-01-11T09:42:03;37.00;;;21.55;;
22070;SDS011;11200;51.488;6.668;2024-01-11T09:44:32;37.67;;;21.58;;
22070;SDS011;11200;51.488;6.668;2024-01-11T09:46:58;37.42;;;21.88;;
22070;SDS011;11200;51.488;6.668;2024-01-11T09:49:25;37.15;;;21.65;;
22070;SDS011;11200;51.488;6.668;2024-01-11T09:51:52;38.45;;;22.20;;
22070;SDS011;11200;51.488;6.668;2024-01-11T09:54:21;37.42;;;22.45;;
22070;SDS011;11200;51.488;6.668;2024-01-11T09:56:49;36.13;;;22.08;;
22070;SDS011;11200;51.488;6.668;2024-01-11T09:59:18;37.97;;;22.42;;
22070;SDS011;11200;51.488;6.668;2024-01-11T10:01:44;34.95;;;21.27;;
22070;SDS011;11200;51.488;6.668;2024-01-11T10:04:11;37.08;;;21.92;;
22070;SDS011;11200;51.488;6.668;2024-01-11T10:06:38;37.28;;;22.55;;
22070;SDS011;11200;51.488;6.668;2024-01-11T10:09:04;41.38;;;24.30;;
22070;SDS011;11200;51.488;6.668;2024-01-11T10:11:30;34.00;;;21.77;;
22070;SDS011;11200;51.488;6.668;2024-01-11T10:13:56;38.25;;;22.80;;
22070;SDS011;11200;51.488;6.668;2024-01-11T10:16:24;40.85;;;22.85;;
22070;SDS011;11200;51.488;6.668;2024-01-11T10:18:53;36.30;;;21.95;;
22070;SDS011;11200;51.488;6.668;2024-01-11T10:21:19;36.75;;;23.48;;
22070;SDS011;11200;51.488;6.668;2024-01-11T10:23:45;37.15;;;22.35;;
22070;SDS011;11200;51.488;6.668;2024-01-11T10:26:11;34.53;;;22.52;;
22070;SDS011;11200;51.488;6.668;2024-01-11T10:28:37;36.55;;;23.15;;
22070;SDS011;11200;51.488;6.668;2024-01-11T10:31:04;37.33;;;23.45;;
22070;SDS011;11200;51.488;6.668;2024-01-11T10:33:32;35.08;;;22.63;;
22070;SDS011;11200;51.488;6.668;2024-01-11T10:36:00;34.67;;;22.85;;
22070;SDS011;11200;51.488;6.668;2024-01-11T10:38:26;34.75;;;21.95;;
22070;SDS011;11200;51.488;6.668;2024-01-11T10:40:53;35.35;;;22.27;;
22070;SDS011;11200;51.488;6.668;2024-01-11T10:43:21;34.67;;;22.42;;
22070;SDS011;11200;51.488;6.668;2024-01-11T10:45:48;35.55;;;23.17;;
22070;SDS011;11200;51.488;6.668;2024-01-11T10:48:15;37.35;;;23.25;;
22070;SDS011;11200;51.488;6.668;2024-01-11T10:50:42;32.63;;;22.00;;
22070;SDS011;11200;51.488;6.668;2024-01-11T10:53:12;32.45;;;22.52;;
22070;SDS011;11200;51.488;6.668;2024-01-11T10:55:38;34.83;;;22.40;;
22070;SDS011;11200;51.488;6.668;2024-01-11T10:58:05;33.58;;;22.48;;
22070;SDS011;11200;51.488;6.668;2024-01-11T11:00:32;36.53;;;22.50;;
22070;SDS011;11200;51.488;6.668;2024-01-11T11:03:00;32.38;;;22.55;;
22070;SDS011;11200;51.488;6.668;2024-01-11T11:05:28;35.08;;;23.33;;
22070;SDS011;11200;51.488;6.668;2024-01-11T11:07:55;33.05;;;22.35;;
22070;SDS011;11200;51.488;6.668;2024-01-11T11:10:21;33.35;;;22.52;;
22070;SDS011;11200;51.488;6.668;2024-01-11T11:12:48;36.80;;;23.23;;
22070;SDS011;11200;51.488;6.668;2024-01-11T11:15:14;34.92;;;23.38;;
22070;SDS011;11200;51.488;6.668;2024-01-11T11:17:40;32.78;;;22.92;;
22070;SDS011;11200;51.488;6.668;2024-01-11T11:20:08;33.10;;;22.88;;
22070;SDS011;11200;51.488;6.668;2024-01-11T11:22:37;33.28;;;22.35;;
22070;SDS011;11200;51.488;6.668;2024-01-11T11:25:09;35.20;;;23.15;;
22070;SDS011;11200;51.488;6.668;2024-01-11T11:27:38;32.58;;;22.40;;
22070;SDS011;11200;51.488;6.668;2024-01-11T11:30:04;32.45;;;23.00;;
22070;SDS011;11200;51.488;6.668;2024-01-11T11:32:37;34.55;;;23.48;;
22070;SDS011;11200;51.488;6.668;2024-01-11T11:35:06;31.70;;;22.08;;
22070;SDS011;11200;51.488;6.668;2024-01-11T11:37:33;33.90;;;23.45;;
22070;SDS011;11200;51.488;6.668;2024-01-11T11:40:02;34.50;;;23.15;;
22070;SDS011;11200;51.488;6.668;2024-01-11T11:42:30;33.92;;;22.58;;
22070;SDS011;11200;51.488;6.668;2024-01-11T11:44:56;36.38;;;23.55;;
22070;SDS011;11200;51.488;6.668;2024-01-11T11:47:23;33.30;;;22.63;;
22070;SDS011;11200;51.488;6.668;2024-01-11T11:49:56;33.15;;;22.65;;
22070;SDS011;11200;51.488;6.668;2024-01-11T11:52:24;32.30;;;21.83;;
22070;SDS011;11200;51.488;6.668;2024-01-11T11:54:50;31.75;;;22.13;;
22070;SDS011;11200;51.488;6.668;2024-01-11T11:57:16;31.15;;;21.60;;
22070;SDS011;11200;51.488;6.668;2024-01-11T11:59:42;33.17;;;22.70;;
22070;SDS011;11200;51.488;6.668;2024-01-11T12:02:08;33.30;;;22.95;;
22070;SDS011;11200;51.488;6.668;2024-01-11T12:04:46;30.83;;;22.05;;
22070;SDS011;11200;51.488;6.668;2024-01-11T12:07:12;32.38;;;22.27;;
22070;SDS011;11200;51.488;6.668;2024-01-11T12:09:38;33.70;;;23.17;;
22070;SDS011;11200;51.488;6.668;2024-01-11T12:12:04;32.35;;;21.65;;
22070;SDS011;11200;51.488;6.668;2024-01-11T12:14:30;31.10;;;21.75;;
22070;SDS011;11200;51.488;6.668;2024-01-11T12:16:57;29.60;;;21.42;;
22070;SDS011;11200;51.488;6.668;2024-01-11T12:19:23;31.13;;;22.15;;
22070;SDS011;11200;51.488;6.668;2024-01-11T12:21:49;33.20;;;20.25;;
22070;SDS011;11200;51.488;6.668;2024-01-11T12:24:15;31.92;;;22.08;;
22070;SDS011;11200;51.488;6.668;2024-01-11T12:26:42;30.42;;;20.55;;
22070;SDS011;11200;51.488;6.668;2024-01-11T12:29:08;30.25;;;21.63;;
22070;SDS011;11200;51.488;6.668;2024-01-11T12:31:35;29.00;;;21.13;;
22070;SDS011;11200;51.488;6.668;2024-01-11T12:34:01;30.13;;;21.52;;
22070;SDS011;11200;51.488;6.668;2024-01-11T12:36:28;30.80;;;21.13;;
22070;SDS011;11200;51.488;6.668;2024-01-11T12:38:54;30.83;;;20.83;;
22070;SDS011;11200;51.488;6.668;2024-01-11T12:41:23;30.92;;;21.17;;
22070;SDS011;11200;51.488;6.668;2024-01-11T12:43:50;28.58;;;20.38;;
22070;SDS011;11200;51.488;6.668;2024-01-11T12:46:16;31.10;;;20.55;;
22070;SDS011;11200;51.488;6.668;2024-01-11T12:48:42;30.00;;;20.50;;
22070;SDS011;11200;51.488;6.668;2024-01-11T12:51:08;30.60;;;21.05;;
22070;SDS011;11200;51.488;6.668;2024-01-11T12:53:35;27.65;;;19.73;;
22070;SDS011;11200;51.488;6.668;2024-01-11T12:56:05;29.27;;;19.92;;
22070;SDS011;11200;51.488;6.668;2024-01-11T12:58:35;26.90;;;19.58;;
22070;SDS011;11200;51.488;6.668;2024-01-11T13:01:01;28.00;;;20.67;;
22070;SDS011;11200;51.488;6.668;2024-01-11T13:03:28;26.92;;;19.35;;
22070;SDS011;11200;51.488;6.668;2024-01-11T13:05:54;28.90;;;18.92;;
22070;SDS011;11200;51.488;6.668;2024-01-11T13:08:20;28.10;;;19.92;;
22070;SDS011;11200;51.488;6.668;2024-01-11T13:10:46;28.30;;;19.15;;
22070;SDS011;11200;51.488;6.668;2024-01-11T13:13:12;28.38;;;19.60;;
22070;SDS011;11200;51.488;6.668;2024-01-11T13:15:39;28.38;;;19.08;;
22070;SDS011;11200;51.488;6.668;2024-01-11T13:18:05;28.13;;;19.58;;
22070;SDS011;11200;51.488;6.668;2024-01-11T13:20:31;28.13;;;19.17;;
22070;SDS011;11200;51.488;6.668;2024-01-11T13:23:16;27.55;;;19.00;;
22070;SDS011;11200;51.488;6.668;2024-01-11T13:25:45;27.20;;;19.38;;
22070;SDS011;11200;51.488;6.668;2024-01-11T13:28:11;26.52;;;18.48;;
22070;SDS011;11200;51.488;6.668;2024-01-11T13:30:41;26.75;;;18.40;;
22070;SDS011;11200;51.488;6.668;2024-01-11T13:33:07;27.67;;;19.42;;
22070;SDS011;11200;51.488;6.668;2024-01-11T13:35:36;27.35;;;18.83;;
22070;SDS011;11200;51.488;6.668;2024-01-11T13:38:03;27.65;;;18.98;;
22070;SDS011;11200;51.488;6.668;2024-01-11T13:40:30;28.98;;;19.48;;
22070;SDS011;11200;51.488;6.668;2024-01-11T13:42:56;28.27;;;19.17;;
22070;SDS011;11200;51.488;6.668;2024-01-11T13:45:22;29.83;;;19.42;;
22070;SDS011;11200;51.488;6.668;2024-01-11T13:47:48;28.33;;;18.67;;
22070;SDS011;11200;51.488;6.668;2024-01-11T13:50:14;29.45;;;19.02;;
22070;SDS011;11200;51.488;6.668;2024-01-11T13:52:41;25.25;;;17.50;;
22070;SDS011;11200;51.488;6.668;2024-01-11T13:55:07;26.98;;;18.25;;
22070;SDS011;11200;51.488;6.668;2024-01-11T13:57:35;27.00;;;18.55;;
22070;SDS011;11200;51.488;6.668;2024-01-11T14:00:02;27.38;;;17.77;;
22070;SDS011;11200;51.488;6.668;2024-01-11T14:02:28;26.33;;;17.60;;
22070;SDS011;11200;51.488;6.668;2024-01-11T14:04:54;27.58;;;18.42;;
22070;SDS011;11200;51.488;6.668;2024-01-11T14:07:22;25.52;;;18.02;;
22070;SDS011;11200;51.488;6.668;2024-01-11T14:09:50;25.65;;;17.83;;
22070;SDS011;11200;51.488;6.668;2024-01-11T14:12:17;25.10;;;17.55;;
22070;SDS011;11200;51.488;6.668;2024-01-11T14:14:46;27.20;;;17.65;;
22070;SDS011;11200;51.488;6.668;2024-01-11T14:17:13;28.10;;;17.60;;